sensor_id;sensor_type;location;lat;lon;timestamp;P1;durP1;ratioP1;P2;durP2;ratioP2
64842;SDS011;51310;52.198;5.422;2023-07-31T00:00:35;2.72;;;0.90;;
64842;SDS011;51310;52.198;5.422;2023-07-31T00:03:01;1.73;;;1.00;;
64842;SDS011;51310;52.198;5.422;2023-07-31T00:05:27;3.30;;;1.17;;
64842;SDS011;51310;52.198;5.422;2023-07-31T00:07:52;3.92;;;0.90;;
64842;SDS011;51310;52.198;5.422;2023-07-31T00:10:19;3.38;;;1.05;;
64842;SDS011;51310;52.198;5.422;2023-07-31T00:12:46;1.98;;;1.05;;
64842;SDS011;51310;52.198;5.422;2023-07-31T00:15:12;5.90;;;1.17;;
64842;SDS011;51310;52.198;5.422;2023-07-31T00:17:39;3.05;;;1.20;;
64842;SDS011;51310;52.198;5.422;2023-07-31T00:20:06;3.38;;;1.13;;
64842;SDS011;51310;52.198;5.422;2023-07-31T00:22:32;2.03;;;1.00;;
64842;SDS011;51310;52.198;5.422;2023-07-31T00:24:58;3.95;;;1.35;;
64842;SDS011;51310;52.198;5.422;2023-07-31T00:27:24;4.72;;;1.08;;
64842;SDS011;51310;52.198;5.422;2023-07-31T00:29:51;3.78;;;1.00;;
64842;SDS011;51310;52.198;5.422;2023-07-31T00:32:16;2.55;;;1.05;;
64842;SDS011;51310;52.198;5.422;2023-07-31T00:34:42;5.63;;;1.20;;
64842;SDS011;51310;52.198;5.422;2023-07-31T00:37:08;2.08;;;0.82;;
64842;SDS011;51310;52.198;5.422;2023-07-31T00:39:34;2.15;;;1.00;;
64842;SDS011;51310;52.198;5.422;2023-07-31T00:42:01;3.53;;;1.30;;
64842;SDS011;51310;52.198;5.422;2023-07-31T00:44:27;5.47;;;1.60;;
64842;SDS011;51310;52.198;5.422;2023-07-31T00:46:53;9.82;;;2.63;;
64842;SDS011;51310;52.198;5.422;2023-07-31T00:49:21;5.40;;;2.78;;
64842;SDS011;51310;52.198;5.422;2023-07-31T00:51:48;7.18;;;2.90;;
64842;SDS011;51310;52.198;5.422;2023-07-31T00:54:14;10.23;;;3.60;;
64842;SDS011;51310;52.198;5.422;2023-07-31T00:56:40;6.35;;;3.10;;
64842;SDS011;51310;52.198;5.422;2023-07-31T00:59:10;12.10;;;3.92;;
64842;SDS011;51310;52.198;5.422;2023-07-31T01:01:36;12.88;;;3.85;;
64842;SDS011;51310;52.198;5.422;2023-07-31T01:04:03;15.25;;;4.03;;
64842;SDS011;51310;52.198;5.422;2023-07-31T01:06:40;15.60;;;4.00;;
64842;SDS011;51310;52.198;5.422;2023-07-31T01:09:47;18.75;;;3.85;;
64842;SDS011;51310;52.198;5.422;2023-07-31T01:12:40;9.60;;;3.47;;
64842;SDS011;51310;52.198;5.422;2023-07-31T01:15:10;10.50;;;2.13;;
64842;SDS011;51310;52.198;5.422;2023-07-31T01:17:37;8.00;;;2.85;;
64842;SDS011;51310;52.198;5.422;2023-07-31T01:20:05;7.82;;;2.92;;
64842;SDS011;51310;52.198;5.422;2023-07-31T01:25:56;5.15;;;2.10;;
64842;SDS011;51310;52.198;5.422;2023-07-31T01:31:32;7.05;;;2.25;;
64842;SDS011;51310;52.198;5.422;2023-07-31T01:33:59;5.53;;;2.35;;
64842;SDS011;51310;52.198;5.422;2023-07-31T01:36:27;7.50;;;3.08;;
64842;SDS011;51310;52.198;5.422;2023-07-31T01:38:59;5.65;;;2.80;;
64842;SDS011;51310;52.198;5.422;2023-07-31T01:41:26;6.10;;;3.03;;
64842;SDS011;51310;52.198;5.422;2023-07-31T01:43:52;6.88;;;3.22;;
64842;SDS011;51310;52.198;5.422;2023-07-31T01:46:18;17.05;;;2.65;;
64842;SDS011;51310;52.198;5.422;2023-07-31T01:48:44;9.43;;;2.47;;
64842;SDS011;51310;52.198;5.422;2023-07-31T01:51:10;6.22;;;2.80;;
64842;SDS011;51310;52.198;5.422;2023-07-31T01:53:36;6.53;;;2.55;;
64842;SDS011;51310;52.198;5.422;2023-07-31T01:56:02;4.30;;;2.03;;
64842;SDS011;51310;52.198;5.422;2023-07-31T01:58:28;7.05;;;2.80;;
64842;SDS011;51310;52.198;5.422;2023-07-31T02:00:54;13.30;;;3.38;;
64842;SDS011;51310;52.198;5.422;2023-07-31T02:03:20;11.70;;;4.22;;
64842;SDS011;51310;52.198;5.422;2023-07-31T02:05:46;15.38;;;5.38;;
64842;SDS011;51310;52.198;5.422;2023-07-31T02:08:15;19.27;;;6.25;;
64842;SDS011;51310;52.198;5.422;2023-07-31T02:10:42;18.38;;;5.50;;
64842;SDS011;51310;52.198;5.422;2023-07-31T02:13:08;25.20;;;5.63;;
64842;SDS011;51310;52.198;5.422;2023-07-31T02:15:34;18.52;;;5.07;;
64842;SDS011;51310;52.198;5.422;2023-07-31T02:18:00;19.63;;;5.63;;
64842;SDS011;51310;52.198;5.422;2023-07-31T02:20:26;18.30;;;5.50;;
64842;SDS011;51310;52.198;5.422;2023-07-31T02:22:52;21.83;;;6.18;;
64842;SDS011;51310;52.198;5.422;2023-07-31T02:25:17;21.40;;;5.95;;
64842;SDS011;51310;52.198;5.422;2023-07-31T02:27:43;20.58;;;5.60;;
64842;SDS011;51310;52.198;5.422;2023-07-31T02:30:09;26.25;;;6.28;;
64842;SDS011;51310;52.198;5.422;2023-07-31T02:32:36;20.25;;;5.45;;
64842;SDS011;51310;52.198;5.422;2023-07-31T02:35:02;30.70;;;7.47;;
64842;SDS011;51310;52.198;5.422;2023-07-31T02:37:29;25.13;;;6.38;;
64842;SDS011;51310;52.198;5.422;2023-07-31T02:39:55;19.95;;;6.97;;
64842;SDS011;51310;52.198;5.422;2023-07-31T02:42:21;36.40;;;6.95;;
64842;SDS011;51310;52.198;5.422;2023-07-31T02:44:47;21.27;;;6.43;;
64842;SDS011;51310;52.198;5.422;2023-07-31T02:47:14;35.63;;;7.65;;
64842;SDS011;51310;52.198;5.422;2023-07-31T02:49:40;24.42;;;7.00;;
64842;SDS011;51310;52.198;5.422;2023-07-31T02:52:06;26.45;;;7.80;;
64842;SDS011;51310;52.198;5.422;2023-07-31T02:54:32;19.10;;;7.10;;
64842;SDS011;51310;52.198;5.422;2023-07-31T02:56:58;39.38;;;7.47;;
64842;SDS011;51310;52.198;5.422;2023-07-31T02:59:24;23.02;;;6.65;;
64842;SDS011;51310;52.198;5.422;2023-07-31T03:01:50;26.02;;;6.22;;
64842;SDS011;51310;52.198;5.422;2023-07-31T03:04:16;26.30;;;6.63;;
64842;SDS011;51310;52.198;5.422;2023-07-31T03:06:42;33.90;;;7.95;;
64842;SDS011;51310;52.198;5.422;2023-07-31T03:09:08;30.38;;;6.05;;
64842;SDS011;51310;52.198;5.422;2023-07-31T03:11:34;27.02;;;6.88;;
64842;SDS011;51310;52.198;5.422;2023-07-31T03:13:59;32.15;;;7.40;;
64842;SDS011;51310;52.198;5.422;2023-07-31T03:16:25;44.35;;;7.85;;
64842;SDS011;51310;52.198;5.422;2023-07-31T03:18:51;27.08;;;7.40;;
64842;SDS011;51310;52.198;5.422;2023-07-31T03:21:17;36.92;;;7.35;;
64842;SDS011;51310;52.198;5.422;2023-07-31T03:23:43;31.40;;;7.38;;
64842;SDS011;51310;52.198;5.422;2023-07-31T03:26:09;27.10;;;6.57;;
64842;SDS011;51310;52.198;5.422;2023-07-31T03:28:35;40.13;;;10.60;;
64842;SDS011;51310;52.198;5.422;2023-07-31T03:31:01;29.55;;;8.25;;
64842;SDS011;51310;52.198;5.422;2023-07-31T03:33:27;36.88;;;8.02;;
64842;SDS011;51310;52.198;5.422;2023-07-31T03:35:53;25.58;;;7.03;;
64842;SDS011;51310;52.198;5.422;2023-07-31T03:38:19;32.35;;;8.32;;
64842;SDS011;51310;52.198;5.422;2023-07-31T03:40:45;38.45;;;8.35;;
64842;SDS011;51310;52.198;5.422;2023-07-31T03:43:11;41.15;;;9.38;;
64842;SDS011;51310;52.198;5.422;2023-07-31T03:45:38;25.38;;;7.53;;
64842;SDS011;51310;52.198;5.422;2023-07-31T03:48:04;37.22;;;8.00;;
64842;SDS011;51310;52.198;5.422;2023-07-31T03:50:30;39.17;;;8.30;;
64842;SDS011;51310;52.198;5.422;2023-07-31T03:52:56;22.88;;;7.80;;
64842;SDS011;51310;52.198;5.422;2023-07-31T03:55:22;31.35;;;8.57;;
64842;SDS011;51310;52.198;5.422;2023-07-31T03:57:47;31.52;;;6.35;;
64842;SDS011;51310;52.198;5.422;2023-07-31T04:00:13;29.98;;;7.07;;
64842;SDS011;51310;52.198;5.422;2023-07-31T04:02:39;28.60;;;7.13;;
64842;SDS011;51310;52.198;5.422;2023-07-31T04:05:06;24.30;;;7.13;;
64842;SDS011;51310;52.198;5.422;2023-07-31T04:07:33;30.90;;;7.80;;
64842;SDS011;51310;52.198;5.422;2023-07-31T04:09:59;37.78;;;8.30;;
64842;SDS011;51310;52.198;5.422;2023-07-31T04:12:25;24.42;;;7.80;;
64842;SDS011;51310;52.198;5.422;2023-07-31T04:14:51;37.65;;;8.95;;
64842;SDS011;51310;52.198;5.422;2023-07-31T04:17:17;40.72;;;7.78;;
64842;SDS011;51310;52.198;5.422;2023-07-31T04:19:43;28.55;;;7.82;;
64842;SDS011;51310;52.198;5.422;2023-07-31T04:22:09;26.67;;;7.32;;
64842;SDS011;51310;52.198;5.422;2023-07-31T04:24:35;26.77;;;6.80;;
64842;SDS011;51310;52.198;5.422;2023-07-31T04:27:01;25.98;;;7.25;;
64842;SDS011;51310;52.198;5.422;2023-07-31T04:29:27;27.95;;;6.97;;
64842;SDS011;51310;52.198;5.422;2023-07-31T04:31:53;30.25;;;7.32;;
64842;SDS011;51310;52.198;5.422;2023-07-31T04:34:19;22.63;;;6.97;;
64842;SDS011;51310;52.198;5.422;2023-07-31T04:36:45;31.70;;;7.22;;
64842;SDS011;51310;52.198;5.422;2023-07-31T04:39:11;27.60;;;7.30;;
64842;SDS011;51310;52.198;5.422;2023-07-31T04:41:37;18.30;;;7.50;;
64842;SDS011;51310;52.198;5.422;2023-07-31T04:44:03;24.25;;;6.82;;
64842;SDS011;51310;52.198;5.422;2023-07-31T04:46:29;27.65;;;7.68;;
64842;SDS011;51310;52.198;5.422;2023-07-31T04:48:55;22.55;;;8.05;;
64842;SDS011;51310;52.198;5.422;2023-07-31T04:51:21;31.55;;;7.47;;
64842;SDS011;51310;52.198;5.422;2023-07-31T04:53:48;18.45;;;6.55;;
64842;SDS011;51310;52.198;5.422;2023-07-31T04:56:14;29.63;;;7.03;;
64842;SDS011;51310;52.198;5.422;2023-07-31T04:58:41;36.28;;;6.60;;
64842;SDS011;51310;52.198;5.422;2023-07-31T05:01:07;18.35;;;6.03;;
64842;SDS011;51310;52.198;5.422;2023-07-31T05:03:33;26.73;;;7.60;;
64842;SDS011;51310;52.198;5.422;2023-07-31T05:05:59;22.48;;;6.10;;
64842;SDS011;51310;52.198;5.422;2023-07-31T05:08:24;16.27;;;5.82;;
64842;SDS011;51310;52.198;5.422;2023-07-31T05:10:50;14.40;;;6.10;;
64842;SDS011;51310;52.198;5.422;2023-07-31T05:13:16;16.13;;;5.78;;
64842;SDS011;51310;52.198;5.422;2023-07-31T05:15:42;19.67;;;5.97;;
64842;SDS011;51310;52.198;5.422;2023-07-31T05:18:08;19.92;;;6.18;;
64842;SDS011;51310;52.198;5.422;2023-07-31T05:20:34;16.75;;;6.00;;
64842;SDS011;51310;52.198;5.422;2023-07-31T05:23:00;21.00;;;6.53;;
64842;SDS011;51310;52.198;5.422;2023-07-31T05:25:26;18.10;;;5.70;;
64842;SDS011;51310;52.198;5.422;2023-07-31T05:27:52;19.55;;;6.10;;
64842;SDS011;51310;52.198;5.422;2023-07-31T05:30:18;18.80;;;5.18;;
64842;SDS011;51310;52.198;5.422;2023-07-31T05:32:44;18.38;;;5.60;;
64842;SDS011;51310;52.198;5.422;2023-07-31T05:35:10;17.20;;;5.32;;
64842;SDS011;51310;52.198;5.422;2023-07-31T05:37:35;13.98;;;4.43;;
64842;SDS011;51310;52.198;5.422;2023-07-31T05:40:01;9.82;;;4.38;;
64842;SDS011;51310;52.198;5.422;2023-07-31T05:42:28;12.63;;;4.75;;
64842;SDS011;51310;52.198;5.422;2023-07-31T05:44:54;9.25;;;3.78;;
64842;SDS011;51310;52.198;5.422;2023-07-31T05:47:19;9.13;;;4.43;;
64842;SDS011;51310;52.198;5.422;2023-07-31T05:49:45;10.50;;;4.22;;
64842;SDS011;51310;52.198;5.422;2023-07-31T05:52:11;12.30;;;3.17;;
64842;SDS011;51310;52.198;5.422;2023-07-31T05:54:37;10.23;;;3.50;;
64842;SDS011;51310;52.198;5.422;2023-07-31T05:57:03;15.63;;;3.38;;
64842;SDS011;51310;52.198;5.422;2023-07-31T05:59:29;9.52;;;3.63;;
64842;SDS011;51310;52.198;5.422;2023-07-31T06:01:58;6.57;;;3.28;;
64842;SDS011;51310;52.198;5.422;2023-07-31T06:04:24;8.63;;;3.80;;
64842;SDS011;51310;52.198;5.422;2023-07-31T06:06:50;16.15;;;4.78;;
64842;SDS011;51310;52.198;5.422;2023-07-31T06:09:17;11.23;;;3.78;;
64842;SDS011;51310;52.198;5.422;2023-07-31T06:11:43;10.65;;;4.07;;
64842;SDS011;51310;52.198;5.422;2023-07-31T06:14:09;6.35;;;3.92;;
64842;SDS011;51310;52.198;5.422;2023-07-31T06:16:35;12.48;;;4.68;;
64842;SDS011;51310;52.198;5.422;2023-07-31T06:19:01;10.27;;;4.13;;
64842;SDS011;51310;52.198;5.422;2023-07-31T06:21:27;8.23;;;4.25;;
64842;SDS011;51310;52.198;5.422;2023-07-31T06:23:53;12.82;;;5.15;;
64842;SDS011;51310;52.198;5.422;2023-07-31T06:26:19;16.40;;;5.38;;
64842;SDS011;51310;52.198;5.422;2023-07-31T06:28:45;12.25;;;4.88;;
64842;SDS011;51310;52.198;5.422;2023-07-31T06:31:11;12.27;;;4.63;;
64842;SDS011;51310;52.198;5.422;2023-07-31T06:33:37;8.90;;;4.53;;
64842;SDS011;51310;52.198;5.422;2023-07-31T06:36:03;7.25;;;4.35;;
64842;SDS011;51310;52.198;5.422;2023-07-31T06:38:29;9.25;;;3.58;;
64842;SDS011;51310;52.198;5.422;2023-07-31T06:40:55;6.50;;;3.38;;
64842;SDS011;51310;52.198;5.422;2023-07-31T06:43:21;10.27;;;4.00;;
64842;SDS011;51310;52.198;5.422;2023-07-31T06:45:47;10.05;;;4.53;;
64842;SDS011;51310;52.198;5.422;2023-07-31T06:48:16;5.15;;;3.20;;
64842;SDS011;51310;52.198;5.422;2023-07-31T06:50:42;10.77;;;4.28;;
64842;SDS011;51310;52.198;5.422;2023-07-31T06:53:08;7.22;;;3.65;;
64842;SDS011;51310;52.198;5.422;2023-07-31T06:55:33;7.30;;;3.45;;
64842;SDS011;51310;52.198;5.422;2023-07-31T06:58:00;5.70;;;2.88;;
64842;SDS011;51310;52.198;5.422;2023-07-31T07:00:27;6.78;;;3.20;;
64842;SDS011;51310;52.198;5.422;2023-07-31T07:02:53;12.50;;;3.55;;
64842;SDS011;51310;52.198;5.422;2023-07-31T07:05:19;10.88;;;3.67;;
64842;SDS011;51310;52.198;5.422;2023-07-31T07:07:45;8.20;;;2.67;;
64842;SDS011;51310;52.198;5.422;2023-07-31T07:10:11;5.07;;;2.85;;
64842;SDS011;51310;52.198;5.422;2023-07-31T07:12:37;5.20;;;2.17;;
64842;SDS011;51310;52.198;5.422;2023-07-31T07:15:03;4.68;;;2.80;;
64842;SDS011;51310;52.198;5.422;2023-07-31T07:17:30;4.82;;;2.65;;
64842;SDS011;51310;52.198;5.422;2023-07-31T07:19:59;3.72;;;2.33;;
64842;SDS011;51310;52.198;5.422;2023-07-31T07:22:26;8.23;;;2.63;;
64842;SDS011;51310;52.198;5.422;2023-07-31T07:24:52;7.10;;;3.28;;
64842;SDS011;51310;52.198;5.422;2023-07-31T07:27:19;4.78;;;2.67;;
64842;SDS011;51310;52.198;5.422;2023-07-31T07:29:45;6.10;;;3.25;;
64842;SDS011;51310;52.198;5.422;2023-07-31T07:32:11;5.53;;;2.53;;
64842;SDS011;51310;52.198;5.422;2023-07-31T07:34:38;3.75;;;2.22;;
64842;SDS011;51310;52.198;5.422;2023-07-31T07:37:04;7.35;;;3.25;;
64842;SDS011;51310;52.198;5.422;2023-07-31T07:39:30;7.30;;;2.40;;
64842;SDS011;51310;52.198;5.422;2023-07-31T07:41:56;4.35;;;2.60;;
64842;SDS011;51310;52.198;5.422;2023-07-31T07:44:22;6.25;;;2.10;;
64842;SDS011;51310;52.198;5.422;2023-07-31T07:46:48;4.20;;;2.58;;
64842;SDS011;51310;52.198;5.422;2023-07-31T07:49:14;5.10;;;2.30;;
64842;SDS011;51310;52.198;5.422;2023-07-31T07:51:40;4.07;;;1.92;;
64842;SDS011;51310;52.198;5.422;2023-07-31T07:54:06;4.25;;;2.22;;
64842;SDS011;51310;52.198;5.422;2023-07-31T07:56:32;4.15;;;1.88;;
64842;SDS011;51310;52.198;5.422;2023-07-31T07:58:58;6.85;;;2.72;;
64842;SDS011;51310;52.198;5.422;2023-07-31T08:01:24;5.10;;;1.90;;
64842;SDS011;51310;52.198;5.422;2023-07-31T08:03:50;5.40;;;2.38;;
64842;SDS011;51310;52.198;5.422;2023-07-31T08:06:16;10.18;;;2.45;;
64842;SDS011;51310;52.198;5.422;2023-07-31T08:08:42;5.55;;;2.20;;
64842;SDS011;51310;52.198;5.422;2023-07-31T08:11:08;3.60;;;2.00;;
64842;SDS011;51310;52.198;5.422;2023-07-31T08:13:34;3.65;;;2.08;;
64842;SDS011;51310;52.198;5.422;2023-07-31T08:16:01;4.10;;;1.90;;
64842;SDS011;51310;52.198;5.422;2023-07-31T08:18:30;3.20;;;1.70;;
64842;SDS011;51310;52.198;5.422;2023-07-31T08:20:59;3.83;;;1.98;;
64842;SDS011;51310;52.198;5.422;2023-07-31T08:23:27;3.20;;;2.05;;
64842;SDS011;51310;52.198;5.422;2023-07-31T08:25:53;3.60;;;1.85;;
64842;SDS011;51310;52.198;5.422;2023-07-31T08:28:19;4.43;;;1.58;;
64842;SDS011;51310;52.198;5.422;2023-07-31T08:30:45;3.00;;;1.58;;
64842;SDS011;51310;52.198;5.422;2023-07-31T08:33:11;1.90;;;1.20;;
64842;SDS011;51310;52.198;5.422;2023-07-31T08:35:37;5.97;;;2.40;;
64842;SDS011;51310;52.198;5.422;2023-07-31T08:38:03;3.15;;;1.60;;
64842;SDS011;51310;52.198;5.422;2023-07-31T08:40:29;2.97;;;1.33;;
64842;SDS011;51310;52.198;5.422;2023-07-31T08:42:55;3.40;;;1.33;;
64842;SDS011;51310;52.198;5.422;2023-07-31T08:45:22;2.40;;;1.45;;
64842;SDS011;51310;52.198;5.422;2023-07-31T08:47:49;2.05;;;1.33;;
64842;SDS011;51310;52.198;5.422;2023-07-31T08:50:17;3.80;;;1.50;;
64842;SDS011;51310;52.198;5.422;2023-07-31T08:52:46;2.33;;;1.60;;
64842;SDS011;51310;52.198;5.422;2023-07-31T08:55:15;3.45;;;1.73;;
64842;SDS011;51310;52.198;5.422;2023-07-31T08:57:42;5.00;;;1.30;;
64842;SDS011;51310;52.198;5.422;2023-07-31T09:00:09;3.03;;;1.60;;
64842;SDS011;51310;52.198;5.422;2023-07-31T09:05:23;2.45;;;1.45;;
64842;SDS011;51310;52.198;5.422;2023-07-31T09:07:51;1.55;;;0.98;;
64842;SDS011;51310;52.198;5.422;2023-07-31T09:10:19;3.50;;;1.15;;
64842;SDS011;51310;52.198;5.422;2023-07-31T09:12:45;3.03;;;1.20;;
64842;SDS011;51310;52.198;5.422;2023-07-31T09:15:12;1.85;;;1.10;;
64842;SDS011;51310;52.198;5.422;2023-07-31T09:17:38;1.90;;;1.15;;
64842;SDS011;51310;52.198;5.422;2023-07-31T09:20:20;2.92;;;1.33;;
64842;SDS011;51310;52.198;5.422;2023-07-31T09:22:47;1.75;;;1.05;;
64842;SDS011;51310;52.198;5.422;2023-07-31T09:25:21;1.80;;;0.98;;
64842;SDS011;51310;52.198;5.422;2023-07-31T09:30:20;1.35;;;0.90;;
64842;SDS011;51310;52.198;5.422;2023-07-31T09:32:47;2.50;;;1.10;;
64842;SDS011;51310;52.198;5.422;2023-07-31T09:38:03;1.92;;;1.20;;
64842;SDS011;51310;52.198;5.422;2023-07-31T09:40:35;3.85;;;1.20;;
64842;SDS011;51310;52.198;5.422;2023-07-31T09:43:08;1.73;;;1.05;;
64842;SDS011;51310;52.198;5.422;2023-07-31T09:45:40;4.22;;;1.13;;
64842;SDS011;51310;52.198;5.422;2023-07-31T09:50:43;2.42;;;1.25;;
64842;SDS011;51310;52.198;5.422;2023-07-31T09:53:14;7.18;;;1.48;;
64842;SDS011;51310;52.198;5.422;2023-07-31T09:55:41;3.67;;;1.40;;
64842;SDS011;51310;52.198;5.422;2023-07-31T09:58:09;3.00;;;1.48;;
64842;SDS011;51310;52.198;5.422;2023-07-31T10:00:37;3.30;;;1.33;;
64842;SDS011;51310;52.198;5.422;2023-07-31T10:03:06;2.15;;;1.50;;
64842;SDS011;51310;52.198;5.422;2023-07-31T10:05:39;1.80;;;1.30;;
64842;SDS011;51310;52.198;5.422;2023-07-31T10:08:16;2.53;;;1.48;;
64842;SDS011;51310;52.198;5.422;2023-07-31T10:10:46;2.50;;;1.58;;
64842;SDS011;51310;52.198;5.422;2023-07-31T10:13:13;1.85;;;1.20;;
64842;SDS011;51310;52.198;5.422;2023-07-31T10:15:40;2.95;;;1.70;;
64842;SDS011;51310;52.198;5.422;2023-07-31T10:18:08;1.92;;;1.42;;
64842;SDS011;51310;52.198;5.422;2023-07-31T10:20:35;2.67;;;1.30;;
64842;SDS011;51310;52.198;5.422;2023-07-31T10:23:02;2.80;;;1.75;;
64842;SDS011;51310;52.198;5.422;2023-07-31T10:25:29;2.60;;;1.50;;
64842;SDS011;51310;52.198;5.422;2023-07-31T10:27:57;3.08;;;1.70;;
64842;SDS011;51310;52.198;5.422;2023-07-31T10:30:27;7.22;;;1.73;;
64842;SDS011;51310;52.198;5.422;2023-07-31T10:32:58;4.97;;;2.20;;
64842;SDS011;51310;52.198;5.422;2023-07-31T10:35:26;2.28;;;1.67;;
64842;SDS011;51310;52.198;5.422;2023-07-31T10:37:53;2.75;;;1.65;;
64842;SDS011;51310;52.198;5.422;2023-07-31T10:40:19;2.28;;;1.70;;
64842;SDS011;51310;52.198;5.422;2023-07-31T10:42:53;3.25;;;2.15;;
64842;SDS011;51310;52.198;5.422;2023-07-31T10:45:32;3.67;;;2.30;;
64842;SDS011;51310;52.198;5.422;2023-07-31T10:48:12;4.88;;;2.90;;
64842;SDS011;51310;52.198;5.422;2023-07-31T10:50:47;5.00;;;2.88;;
64842;SDS011;51310;52.198;5.422;2023-07-31T10:55:51;8.13;;;3.40;;
64842;SDS011;51310;52.198;5.422;2023-07-31T10:58:19;5.45;;;3.40;;
64842;SDS011;51310;52.198;5.422;2023-07-31T11:00:47;8.93;;;3.08;;
64842;SDS011;51310;52.198;5.422;2023-07-31T11:03:14;5.35;;;3.25;;
64842;SDS011;51310;52.198;5.422;2023-07-31T11:13:29;5.60;;;2.90;;
64842;SDS011;51310;52.198;5.422;2023-07-31T11:16:23;4.00;;;2.90;;
64842;SDS011;51310;52.198;5.422;2023-07-31T11:18:50;7.30;;;3.55;;
64842;SDS011;51310;52.198;5.422;2023-07-31T11:21:24;5.20;;;3.22;;
64842;SDS011;51310;52.198;5.422;2023-07-31T11:23:51;3.90;;;3.08;;
64842;SDS011;51310;52.198;5.422;2023-07-31T11:26:22;5.72;;;2.97;;
64842;SDS011;51310;52.198;5.422;2023-07-31T11:28:49;5.15;;;2.65;;
64842;SDS011;51310;52.198;5.422;2023-07-31T11:31:17;3.47;;;2.95;;
64842;SDS011;51310;52.198;5.422;2023-07-31T11:33:43;5.07;;;2.58;;
64842;SDS011;51310;52.198;5.422;2023-07-31T11:36:19;5.07;;;2.55;;
64842;SDS011;51310;52.198;5.422;2023-07-31T11:38:46;5.00;;;2.55;;
64842;SDS011;51310;52.198;5.422;2023-07-31T11:41:16;4.20;;;2.63;;
64842;SDS011;51310;52.198;5.422;2023-07-31T11:43:42;4.70;;;2.67;;
64842;SDS011;51310;52.198;5.422;2023-07-31T11:46:09;2.90;;;2.03;;
64842;SDS011;51310;52.198;5.422;2023-07-31T11:48:36;4.97;;;2.22;;
64842;SDS011;51310;52.198;5.422;2023-07-31T11:51:03;3.42;;;1.60;;
64842;SDS011;51310;52.198;5.422;2023-07-31T11:56:22;8.73;;;1.55;;
64842;SDS011;51310;52.198;5.422;2023-07-31T11:58:51;8.65;;;1.40;;
64842;SDS011;51310;52.198;5.422;2023-07-31T12:01:27;3.05;;;1.60;;
64842;SDS011;51310;52.198;5.422;2023-07-31T12:03:54;1.92;;;1.23;;
64842;SDS011;51310;52.198;5.422;2023-07-31T12:06:21;7.97;;;1.65;;
64842;SDS011;51310;52.198;5.422;2023-07-31T12:09:02;7.05;;;1.92;;
64842;SDS011;51310;52.198;5.422;2023-07-31T12:11:30;3.30;;;2.28;;
64842;SDS011;51310;52.198;5.422;2023-07-31T12:13:56;8.02;;;2.88;;
64842;SDS011;51310;52.198;5.422;2023-07-31T12:16:25;4.90;;;2.85;;
64842;SDS011;51310;52.198;5.422;2023-07-31T12:18:52;4.10;;;2.83;;
64842;SDS011;51310;52.198;5.422;2023-07-31T12:21:19;6.63;;;2.97;;
64842;SDS011;51310;52.198;5.422;2023-07-31T12:23:45;5.30;;;3.72;;
64842;SDS011;51310;52.198;5.422;2023-07-31T12:26:14;6.38;;;3.28;;
64842;SDS011;51310;52.198;5.422;2023-07-31T12:28:45;6.93;;;3.38;;
64842;SDS011;51310;52.198;5.422;2023-07-31T12:33:48;5.53;;;3.08;;
64842;SDS011;51310;52.198;5.422;2023-07-31T12:36:17;4.88;;;2.30;;
64842;SDS011;51310;52.198;5.422;2023-07-31T12:38:49;6.18;;;3.17;;
64842;SDS011;51310;52.198;5.422;2023-07-31T12:41:16;4.93;;;2.58;;
64842;SDS011;51310;52.198;5.422;2023-07-31T12:43:43;3.92;;;2.80;;
64842;SDS011;51310;52.198;5.422;2023-07-31T12:46:10;9.38;;;3.13;;
64842;SDS011;51310;52.198;5.422;2023-07-31T12:48:37;9.10;;;2.92;;
64842;SDS011;51310;52.198;5.422;2023-07-31T12:51:04;6.18;;;3.30;;
64842;SDS011;51310;52.198;5.422;2023-07-31T12:53:31;6.15;;;2.38;;
64842;SDS011;51310;52.198;5.422;2023-07-31T12:55:58;4.57;;;2.65;;
64842;SDS011;51310;52.198;5.422;2023-07-31T12:58:24;4.28;;;2.60;;
64842;SDS011;51310;52.198;5.422;2023-07-31T13:00:50;3.15;;;2.25;;
64842;SDS011;51310;52.198;5.422;2023-07-31T13:03:16;3.33;;;2.60;;
64842;SDS011;51310;52.198;5.422;2023-07-31T13:05:42;4.22;;;2.92;;
64842;SDS011;51310;52.198;5.422;2023-07-31T13:08:08;4.80;;;2.97;;
64842;SDS011;51310;52.198;5.422;2023-07-31T13:10:34;6.40;;;2.83;;
64842;SDS011;51310;52.198;5.422;2023-07-31T13:13:00;4.15;;;3.20;;
64842;SDS011;51310;52.198;5.422;2023-07-31T13:15:26;4.82;;;2.65;;
64842;SDS011;51310;52.198;5.422;2023-07-31T13:17:52;5.47;;;2.83;;
64842;SDS011;51310;52.198;5.422;2023-07-31T13:20:18;8.68;;;3.80;;
64842;SDS011;51310;52.198;5.422;2023-07-31T13:22:44;3.75;;;2.90;;
64842;SDS011;51310;52.198;5.422;2023-07-31T13:25:10;4.15;;;2.53;;
64842;SDS011;51310;52.198;5.422;2023-07-31T13:27:36;6.95;;;2.88;;
64842;SDS011;51310;52.198;5.422;2023-07-31T13:30:01;2.67;;;1.95;;
64842;SDS011;51310;52.198;5.422;2023-07-31T13:32:29;4.43;;;2.10;;
64842;SDS011;51310;52.198;5.422;2023-07-31T13:34:55;5.50;;;2.15;;
64842;SDS011;51310;52.198;5.422;2023-07-31T13:37:21;3.83;;;2.40;;
64842;SDS011;51310;52.198;5.422;2023-07-31T13:39:47;3.35;;;2.20;;
64842;SDS011;51310;52.198;5.422;2023-07-31T13:42:13;4.15;;;2.17;;
64842;SDS011;51310;52.198;5.422;2023-07-31T13:44:39;5.22;;;2.47;;
64842;SDS011;51310;52.198;5.422;2023-07-31T13:47:07;10.98;;;2.30;;
64842;SDS011;51310;52.198;5.422;2023-07-31T13:49:34;3.97;;;1.90;;
64842;SDS011;51310;52.198;5.422;2023-07-31T13:52:01;2.80;;;2.10;;
64842;SDS011;51310;52.198;5.422;2023-07-31T13:54:28;4.20;;;1.75;;
64842;SDS011;51310;52.198;5.422;2023-07-31T13:56:54;3.05;;;1.50;;
64842;SDS011;51310;52.198;5.422;2023-07-31T13:59:20;3.28;;;1.85;;
64842;SDS011;51310;52.198;5.422;2023-07-31T14:01:47;2.60;;;1.63;;
64842;SDS011;51310;52.198;5.422;2023-07-31T14:04:13;2.33;;;1.50;;
64842;SDS011;51310;52.198;5.422;2023-07-31T14:06:39;2.13;;;1.20;;
64842;SDS011;51310;52.198;5.422;2023-07-31T14:09:05;1.70;;;0.80;;
64842;SDS011;51310;52.198;5.422;2023-07-31T14:11:31;3.97;;;1.10;;
64842;SDS011;51310;52.198;5.422;2023-07-31T14:13:58;4.40;;;0.95;;
64842;SDS011;51310;52.198;5.422;2023-07-31T14:16:24;2.42;;;1.50;;
64842;SDS011;51310;52.198;5.422;2023-07-31T14:18:50;2.40;;;1.20;;
64842;SDS011;51310;52.198;5.422;2023-07-31T14:21:15;2.13;;;1.10;;
64842;SDS011;51310;52.198;5.422;2023-07-31T14:23:44;1.83;;;0.93;;
64842;SDS011;51310;52.198;5.422;2023-07-31T14:26:10;4.43;;;1.65;;
64842;SDS011;51310;52.198;5.422;2023-07-31T14:28:36;3.13;;;0.90;;
64842;SDS011;51310;52.198;5.422;2023-07-31T14:31:03;4.70;;;1.20;;
64842;SDS011;51310;52.198;5.422;2023-07-31T14:33:29;4.97;;;1.05;;
64842;SDS011;51310;52.198;5.422;2023-07-31T14:35:55;1.98;;;1.50;;
64842;SDS011;51310;52.198;5.422;2023-07-31T14:38:20;3.28;;;1.35;;
64842;SDS011;51310;52.198;5.422;2023-07-31T14:40:46;2.15;;;1.40;;
64842;SDS011;51310;52.198;5.422;2023-07-31T14:43:12;1.70;;;1.40;;
64842;SDS011;51310;52.198;5.422;2023-07-31T14:45:38;7.35;;;1.58;;
64842;SDS011;51310;52.198;5.422;2023-07-31T14:48:04;2.70;;;1.75;;
64842;SDS011;51310;52.198;5.422;2023-07-31T14:50:30;4.15;;;2.53;;
64842;SDS011;51310;52.198;5.422;2023-07-31T14:52:56;4.00;;;2.97;;
64842;SDS011;51310;52.198;5.422;2023-07-31T14:55:22;6.68;;;3.53;;
64842;SDS011;51310;52.198;5.422;2023-07-31T14:57:48;5.60;;;3.30;;
64842;SDS011;51310;52.198;5.422;2023-07-31T15:00:14;6.05;;;3.72;;
64842;SDS011;51310;52.198;5.422;2023-07-31T15:02:40;5.38;;;4.20;;
64842;SDS011;51310;52.198;5.422;2023-07-31T15:05:06;6.88;;;4.38;;
64842;SDS011;51310;52.198;5.422;2023-07-31T15:07:33;5.53;;;3.40;;
64842;SDS011;51310;52.198;5.422;2023-07-31T15:10:00;6.30;;;3.33;;
64842;SDS011;51310;52.198;5.422;2023-07-31T15:12:28;6.05;;;4.07;;
64842;SDS011;51310;52.198;5.422;2023-07-31T15:14:54;5.80;;;3.95;;